Logo AVAMET
Benvolgut visitant, si us plau, ingressa Recuperar contrasenya
AVAMET paisatges
Union Alcoyana

Llucena

Dades diàries. Acumulats / Últims 30 dies disponibles

Data Temperatura (°C) Humitat rel. (%) Pressió rel. (hPa) Vent (km/h) Precipitació
Mínima Mitjana Màxima Amplitud
tèrmica
Mínima Mitjana Màxima Mínima Mitjana Màxima Predom. Mitjana Ràfega
màxima
Total
(mm)
Índex-n
Mínima Mitjana Màxima Mínima Mitjana Màxima n
0 a 1
P0 max
mm 5'
Dades mensuals acumulades fins l'últim dia disponible
01/2022 1,8 6,9 15,4 10,0 7,8 13,8 22,6 20,8 13 48 100 1.002 1.023 1.035   14,1 120,7 0,0
Dades anuals acumulades fins l'últim dia disponible
2022 1,8 6,9 15,4 10,0 7,8 13,8 22,6 20,8 13 48 100 1.002 1.023 1.035   14,1 120,7 0,0
Últims 30 dies disponibles
17-01-2022 3,6     6,7     12,1 8,5 24 40 57 1.031 1.032 1.034 NW 11,7 25,7 0,0
16-01-2022 3,3     6,1     11,4 8,1 31 51 69 1.026 1.029 1.032 NW 12,7 27,4 0,0
15-01-2022 3,1     6,0     11,0 7,9 40 61 79 1.025 1.027 1.031 NW 11,7 25,7 0,0
14-01-2022 1,8     4,7     7,8 6,0 38 57 79 1.031 1.033 1.035 NW 8,0 25,7 0,0
13-01-2022 3,4     5,9     9,9 6,5 44 72 87 1.031 1.033 1.035 NW 9,0 25,7 0,0
12-01-2022 4,6     7,3     11,3 6,7 29 57 90 1.025 1.028 1.031 NW 9,8 25,7 0,0
11-01-2022 7,0     8,6     11,5 4,5 58 89 100 1.019 1.022 1.025 SE 5,6 24,1 0,0
10-01-2022 15,4     16,4     17,3 1,9 40 51 59 1.008 1.010 1.012 NW 43,3 120,7 0,0
09-01-2022 9,6     13,3     16,2 6,6 26 45 56 1.011 1.015 1.018 W 17,7 70,8 0,0
08-01-2022 5,9     9,1     11,7 5,8 25 40 57 1.018 1.023 1.025 SE 14,0 69,2 0,0
07-01-2022 2,2     7,9     13,1 10,9 27 39 49 1.021 1.023 1.025 NW 17,5 95,0 0,0
06-01-2022 2,0     5,1     9,4 7,4 21 36 53 1.013 1.017 1.021 NW 8,7 38,6 0,0
05-01-2022 5,7     8,2     10,4 4,7 32 43 53 1.002 1.009 1.013 W 21,6 104,6 0,0
04-01-2022 9,9     15,9     21,1 11,2 26 40 58 1.004 1.010 1.018 W 15,6 67,6 0,0
03-01-2022 11,1     13,6     16,2 5,1 33 44 66 1.019 1.022 1.026 NW 11,7 24,1 0,0
02-01-2022 13,7     17,6     22,1 8,4 13 29 45 1.024 1.025 1.026 NW 10,9 32,2 0,0
01-01-2022 14,3     17,4     22,6 8,3 21 30 46 1.025 1.026 1.027 NW 10,1 22,5 0,0
31-12-2021 14,7     17,1     19,9 5,2 23 30 48 1.023 1.025 1.027 NW 11,7 25,7 0,0
30-12-2021 11,7     14,8     19,1 7,4 30 52 62 1.021 1.022 1.023 NW 11,6 24,1 0,0
29-12-2021 11,8     15,2     20,7 8,9 28 43 56 1.018 1.020 1.022 NW 10,6 27,4 0,0
28-12-2021 13,1     16,4     20,5 7,4 34 46 57 1.012 1.015 1.019 W 15,6 61,2 0,0
27-12-2021 11,6     16,1     19,6 8,0 34 52 73 1.006 1.009 1.014 W 18,5 67,6 0,0
26-12-2021 10,4     12,6     15,4 5,0 54 67 75 1.006 1.008 1.010 W 9,3 32,2 0,0
25-12-2021 9,9     12,4     14,9 5,0 54 67 78 1.005 1.006 1.008 W 8,7 48,3 0,0
24-12-2021 8,8     10,3     12,2 3,4 76 86 98 1.008 1.012 1.017 SE 6,0 22,5 0,0
23-12-2021 8,3     10,1     12,8 4,5 78 89 97 1.017 1.019 1.022 SE 6,4 27,4 0,0
22-12-2021 7,2     9,0     11,2 4,0 76 89 96 1.018 1.020 1.022 SE 6,9 27,4 0,0
21-12-2021 8,9     12,8     17,9 9,0 51 70 93 1.017 1.018 1.019 NW 8,7 41,8 0,0
20-12-2021 5,6     9,4     13,1 7,5 55 70 90 1.019 1.021 1.023 NW 9,2 22,5 0,0
19-12-2021 5,0     7,4     10,4 5,4 78 87 94 1.023 1.026 1.030 SE 7,4 24,1 0,0
Últims 13 mesos disponibles
12/2021 4,2 8,1 14,7 11,2 9,2 14,8 20,7 16,5 29 62 89 1.006 1.018 1.029 NW 12,7 122,3 0,6
11/2021 3,8 7,9 12,8 10,7 7,9 14,3 21,6 17,8 32 61 83 1.002 1.014 1.028 NW 10,8 98,2 32,8
10/2021 9,9 12,7 15,8 16,0 16,8 20,3 26,3 16,4 51 73 85 1.007 1.018 1.025 SE 9,3 51,5 11,0
09/2021 11,2 16,6 19,9 19,9 18,9 24,0 26,7 15,5 59 76 90 1.012 1.016 1.023 SE 9,3 74,0 90,8
Tots els anys disponibles
Temperatura (°C)
Humitat relativa (%)
Velocitat del vent i ràfega màxima (km/h)
Direcció del vent (°)
Pressió (hPa)
Precipitació (mm)
Nota sobre les dades: s'avisa a l'usuari de la provisionalitat i no oficialitat d'aquestes dades
Logo AVAMET blanc
Web allotjada a Sollutia
Llicència de Creative CommonsLa web d'AVAMET i els seus continguts estan subjectes a una llicència de
Reconeixement - No Comercial - Compartir igual
Avís legal - Política de privacitat - Política de cookies
NOVES ESTACIONS: Altea - Club Nàutic d'Altea (Soci) / Aiora - la Hunde (Pròpia AVAMET) / Carlet - Caseta del banc (Soci) / Albocàsser (Ajuntament Soci) / Tírig (Ajuntament Soci) / Monòver (Soci) / Gandia - Grau sud (Ajuntament Soci) / Caudiel (Ajuntament Soci) / Montcada - CIDE (Soci) / el Campello - el Vincle (Soci) / Pego - Corral de Rata (Soci) / Torreblanca - Torrenostra - PN el Prat (Pròpia AVAMET) / Serra (Ajuntament Soci) / Puçol - Urbanització Alfinach (Soci) / Torreblanca - Poble (Soci) / Quatretonda - Camí del Molí (Soci) / Alginet - Urb. Los Lagos (Soci) / La Pobla de Vallbona - Quatre Vents (Soci) / Cabanes - Mas de Corretger (Soci) / Peníscola - Benimar (Soci) - - -